Time;durP1;ratioP1;P1;durP2;ratioP2;P2;SDS_P1;SDS_P2;PMS_P1;PMS_P2;Temp;Humidity;BMP_temperature;BMP_pressure;BME280_temperature;BME280_humidity;BME280_pressure;Samples;Min_cycle;Max_cycle;Signal;HPM_P1;HPM_P2
2023/07/29 00:00:47;;;;;;;10.27;6.05;;;;;;;;;;5011832;28;20395;-73
2023/07/29 00:03:13;;;;;;;9.32;5.65;;;;;;;;;;5008486;28;20107;-74
2023/07/29 00:05:40;;;;;;;8.00;4.65;;;;;;;;;;4994422;28;20441;-74
2023/07/29 00:08:06;;;;;;;10.35;4.90;;;;;;;;;;4998008;28;20045;-74
2023/07/29 00:10:33;;;;;;;8.23;4.70;;;;;;;;;;5001135;28;20399;-73
2023/07/29 00:12:59;;;;;;;9.55;4.75;;;;;;;;;;5010759;28;20092;-73
2023/07/29 00:15:25;;;;;;;8.30;4.78;;;;;;;;;;5010744;28;22245;-73
2023/07/29 00:17:51;;;;;;;7.72;5.43;;;;;;;;;;5010094;28;20104;-73
2023/07/29 00:20:17;;;;;;;7.25;4.57;;;;;;;;;;5001433;28;20140;-74
2023/07/29 00:22:43;;;;;;;6.78;4.18;;;;;;;;;;5001165;28;20130;-73
2023/07/29 00:25:09;;;;;;;5.60;4.57;;;;;;;;;;5012309;28;20042;-73
2023/07/29 00:27:35;;;;;;;7.30;4.20;;;;;;;;;;5011913;28;20050;-73
2023/07/29 00:30:01;;;;;;;6.45;4.25;;;;;;;;;;5013642;28;20049;-73
2023/07/29 00:32:30;;;;;;;8.40;4.30;;;;;;;;;;5008350;28;20452;-73
2023/07/29 00:34:56;;;;;;;4.57;3.53;;;;;;;;;;5008300;28;20045;-73
2023/07/29 00:37:22;;;;;;;10.57;4.15;;;;;;;;;;5001076;28;20052;-73
2023/07/29 00:39:48;;;;;;;5.75;4.20;;;;;;;;;;5009118;28;20050;-73
2023/07/29 00:42:14;;;;;;;9.80;5.30;;;;;;;;;;5009878;28;20060;-73
2023/07/29 00:44:40;;;;;;;9.55;5.00;;;;;;;;;;5012309;28;20037;-73
2023/07/29 00:47:07;;;;;;;10.23;4.80;;;;;;;;;;5011450;28;20502;-73
2023/07/29 00:49:33;;;;;;;10.40;5.25;;;;;;;;;;5012290;28;20045;-73
2023/07/29 00:51:59;;;;;;;11.80;5.40;;;;;;;;;;5011039;28;20389;-73
2023/07/29 00:54:25;;;;;;;9.63;5.28;;;;;;;;;;5010147;28;20489;-73
2023/07/29 00:56:52;;;;;;;8.63;5.78;;;;;;;;;;5009503;28;20081;-73
2023/07/29 00:59:18;;;;;;;9.65;5.47;;;;;;;;;;5010667;28;20040;-73
2023/07/29 01:01:44;;;;;;;11.23;5.13;;;;;;;;;;5006272;28;20041;-73
2023/07/29 01:04:10;;;;;;;11.05;5.72;;;;;;;;;;5009884;28;20073;-73
2023/07/29 01:06:46;;;;;;;7.22;4.45;;;;;;;;;;5009488;28;20057;-73
2023/07/29 01:09:28;;;;;;;8.05;5.30;;;;;;;;;;5007524;28;20371;-73
2023/07/29 01:12:00;;;;;;;8.80;4.60;;;;;;;;;;5011515;28;20057;-73
2023/07/29 01:14:41;;;;;;;8.80;5.33;;;;;;;;;;5004468;28;20041;-73
2023/07/29 01:17:14;;;;;;;9.25;4.97;;;;;;;;;;5007080;28;20053;-73
2023/07/29 01:20:03;;;;;;;9.82;5.38;;;;;;;;;;5012585;28;20060;-73
2023/07/29 01:22:30;;;;;;;11.23;4.90;;;;;;;;;;5008914;28;20053;-73
2023/07/29 01:24:57;;;;;;;10.20;5.07;;;;;;;;;;5002123;28;20033;-73
2023/07/29 01:27:23;;;;;;;9.98;4.65;;;;;;;;;;5006050;28;20220;-73
2023/07/29 01:29:49;;;;;;;10.43;5.22;;;;;;;;;;5010242;28;20117;-73
2023/07/29 01:32:17;;;;;;;8.02;4.60;;;;;;;;;;5011399;28;20508;-73
2023/07/29 01:34:51;;;;;;;13.18;4.93;;;;;;;;;;5009794;28;20046;-73
2023/07/29 01:37:20;;;;;;;11.65;5.88;;;;;;;;;;5009089;28;20446;-73
2023/07/29 01:39:48;;;;;;;12.50;6.00;;;;;;;;;;5010595;28;20042;-73
2023/07/29 01:42:14;;;;;;;11.68;6.57;;;;;;;;;;5010572;28;20133;-73
2023/07/29 01:44:42;;;;;;;12.90;6.80;;;;;;;;;;5010160;28;20093;-73
2023/07/29 01:47:08;;;;;;;14.57;6.47;;;;;;;;;;5008823;28;20064;-73
2023/07/29 01:49:34;;;;;;;11.38;5.82;;;;;;;;;;5009067;28;20109;-73
2023/07/29 01:52:00;;;;;;;8.68;6.32;;;;;;;;;;5010266;28;20038;-73
2023/07/29 01:54:26;;;;;;;8.25;4.63;;;;;;;;;;5010363;28;20046;-73
2023/07/29 01:56:53;;;;;;;9.93;4.85;;;;;;;;;;5008779;28;20149;-73
2023/07/29 01:59:19;;;;;;;10.48;4.93;;;;;;;;;;5012034;28;20041;-74
2023/07/29 02:01:46;;;;;;;10.05;4.50;;;;;;;;;;5001843;28;20459;-73
2023/07/29 02:04:12;;;;;;;11.27;4.97;;;;;;;;;;4991906;28;20129;-73
2023/07/29 02:06:38;;;;;;;15.30;5.13;;;;;;;;;;4997444;28;20129;-73
2023/07/29 02:09:04;;;;;;;8.90;4.20;;;;;;;;;;5011299;28;20450;-73
2023/07/29 02:11:30;;;;;;;7.72;4.20;;;;;;;;;;5007214;28;20571;-73
2023/07/29 02:13:57;;;;;;;7.18;3.67;;;;;;;;;;5010880;28;20053;-73
2023/07/29 02:16:23;;;;;;;7.45;3.67;;;;;;;;;;5007690;28;20042;-73
2023/07/29 02:18:50;;;;;;;9.63;3.70;;;;;;;;;;5008573;28;20046;-73
2023/07/29 02:21:16;;;;;;;7.70;3.42;;;;;;;;;;5006655;28;20096;-73
2023/07/29 02:23:42;;;;;;;7.57;3.55;;;;;;;;;;5010508;28;20073;-73
2023/07/29 02:26:08;;;;;;;6.05;3.17;;;;;;;;;;5008058;28;20037;-73
2023/07/29 02:28:34;;;;;;;5.40;3.15;;;;;;;;;;5007276;28;20445;-73
2023/07/29 02:31:29;;;;;;;6.80;3.47;;;;;;;;;;5008824;28;20421;-73
2023/07/29 02:33:56;;;;;;;9.38;3.75;;;;;;;;;;5004088;28;20077;-73
2023/07/29 02:36:22;;;;;;;8.00;3.03;;;;;;;;;;5011091;28;20066;-73
2023/07/29 02:38:48;;;;;;;7.97;3.25;;;;;;;;;;5012805;28;20053;-73
2023/07/29 02:41:15;;;;;;;7.18;3.30;;;;;;;;;;5012837;28;20091;-73
2023/07/29 02:43:42;;;;;;;7.13;3.30;;;;;;;;;;5014203;28;20437;-73
2023/07/29 02:46:08;;;;;;;9.88;3.33;;;;;;;;;;5011136;28;20065;-73
2023/07/29 02:48:34;;;;;;;7.03;2.72;;;;;;;;;;5013163;28;20042;-73
2023/07/29 02:51:00;;;;;;;7.22;3.30;;;;;;;;;;5014933;28;20397;-73
2023/07/29 02:53:26;;;;;;;7.80;3.13;;;;;;;;;;5012795;28;20049;-73
2023/07/29 02:55:52;;;;;;;4.50;2.90;;;;;;;;;;5009692;28;20885;-73
2023/07/29 02:58:18;;;;;;;7.00;2.78;;;;;;;;;;5013974;28;20046;-73
2023/07/29 03:00:44;;;;;;;10.60;3.45;;;;;;;;;;5011613;28;20072;-73
2023/07/29 03:03:10;;;;;;;7.05;2.97;;;;;;;;;;5014659;28;20042;-73
2023/07/29 03:05:38;;;;;;;5.55;3.20;;;;;;;;;;5011368;28;20050;-73
2023/07/29 03:08:04;;;;;;;5.40;3.40;;;;;;;;;;5013283;28;20054;-73
2023/07/29 03:10:30;;;;;;;10.50;3.35;;;;;;;;;;5010399;28;20508;-73
2023/07/29 03:12:56;;;;;;;8.95;3.10;;;;;;;;;;5013287;28;20121;-73
2023/07/29 03:15:25;;;;;;;6.78;3.08;;;;;;;;;;5009732;28;20045;-73
2023/07/29 03:17:52;;;;;;;7.95;3.15;;;;;;;;;;5007076;28;20088;-73
2023/07/29 03:20:18;;;;;;;5.40;3.72;;;;;;;;;;5011161;28;20041;-73
2023/07/29 03:22:45;;;;;;;7.40;3.10;;;;;;;;;;5012374;28;20064;-73
2023/07/29 03:25:11;;;;;;;8.93;3.47;;;;;;;;;;5012981;28;20069;-73
2023/07/29 03:27:37;;;;;;;5.40;2.90;;;;;;;;;;5012116;28;20062;-73
2023/07/29 03:30:04;;;;;;;6.75;2.90;;;;;;;;;;5012641;28;20057;-73
2023/07/29 03:32:30;;;;;;;7.65;3.50;;;;;;;;;;5012087;28;20046;-73
2023/07/29 03:34:56;;;;;;;10.88;3.80;;;;;;;;;;5011422;28;20038;-73
2023/07/29 03:37:22;;;;;;;7.97;3.40;;;;;;;;;;5012644;28;20066;-73
2023/07/29 03:39:48;;;;;;;6.20;3.30;;;;;;;;;;5012749;28;20504;-73
2023/07/29 03:42:14;;;;;;;11.73;3.30;;;;;;;;;;5011012;28;20053;-73
2023/07/29 03:44:40;;;;;;;6.60;3.47;;;;;;;;;;5012131;28;20397;-73
2023/07/29 03:47:06;;;;;;;10.10;3.00;;;;;;;;;;5010368;28;20050;-73
2023/07/29 03:49:32;;;;;;;6.32;3.05;;;;;;;;;;5010904;28;20421;-73
2023/07/29 03:51:58;;;;;;;10.70;3.50;;;;;;;;;;5014820;28;20049;-73
2023/07/29 03:54:24;;;;;;;9.93;3.45;;;;;;;;;;4995950;28;20050;-73
2023/07/29 03:56:51;;;;;;;8.65;3.50;;;;;;;;;;5009993;28;20050;-73
2023/07/29 03:59:17;;;;;;;8.75;3.80;;;;;;;;;;5012772;28;20482;-73
2023/07/29 04:01:43;;;;;;;4.55;2.88;;;;;;;;;;5010666;28;20486;-73
2023/07/29 04:04:09;;;;;;;6.80;3.03;;;;;;;;;;5012393;28;20099;-73
2023/07/29 04:06:36;;;;;;;7.53;3.38;;;;;;;;;;5010715;28;20096;-73
2023/07/29 04:09:02;;;;;;;6.22;3.50;;;;;;;;;;5011181;28;20050;-73
2023/07/29 04:11:28;;;;;;;7.68;3.55;;;;;;;;;;5011678;28;20046;-73
2023/07/29 04:13:54;;;;;;;8.80;3.80;;;;;;;;;;5012908;28;20042;-73
2023/07/29 04:16:20;;;;;;;7.40;3.53;;;;;;;;;;5010540;28;20092;-73
2023/07/29 04:18:46;;;;;;;9.57;3.45;;;;;;;;;;5011771;28;20049;-73
2023/07/29 04:21:12;;;;;;;11.27;3.63;;;;;;;;;;5009314;28;20058;-73
2023/07/29 04:23:38;;;;;;;6.15;3.45;;;;;;;;;;5004539;28;20053;-73
2023/07/29 04:26:04;;;;;;;6.95;3.75;;;;;;;;;;5011824;28;20119;-73
2023/07/29 04:28:30;;;;;;;13.88;4.45;;;;;;;;;;5012893;28;20093;-73
2023/07/29 04:30:56;;;;;;;12.65;4.18;;;;;;;;;;5003169;28;20056;-73
2023/07/29 04:33:22;;;;;;;9.07;3.63;;;;;;;;;;5004020;28;20053;-73
2023/07/29 04:35:49;;;;;;;8.68;4.03;;;;;;;;;;4994633;28;20057;-74
2023/07/29 04:38:15;;;;;;;11.48;4.20;;;;;;;;;;4990160;28;20050;-73
2023/07/29 04:40:41;;;;;;;11.93;4.30;;;;;;;;;;4991865;28;20065;-73
2023/07/29 04:43:07;;;;;;;8.77;3.90;;;;;;;;;;4989189;28;20088;-73
2023/07/29 04:45:33;;;;;;;9.20;4.18;;;;;;;;;;4992886;28;20046;-73
2023/07/29 04:47:59;;;;;;;9.70;3.85;;;;;;;;;;4975395;28;20050;-73
2023/07/29 04:50:25;;;;;;;9.88;3.78;;;;;;;;;;4985251;28;20101;-73
2023/07/29 04:52:53;;;;;;;6.50;3.53;;;;;;;;;;4990431;28;20486;-73
2023/07/29 04:55:19;;;;;;;9.23;4.28;;;;;;;;;;4992320;28;20068;-73
2023/07/29 04:57:45;;;;;;;8.38;3.65;;;;;;;;;;4974099;28;20050;-73
2023/07/29 05:00:11;;;;;;;10.98;4.20;;;;;;;;;;4974898;28;20050;-73
2023/07/29 05:02:37;;;;;;;11.65;4.47;;;;;;;;;;4984323;28;20522;-73
2023/07/29 05:05:03;;;;;;;15.27;4.88;;;;;;;;;;4956097;28;20502;-73
2023/07/29 05:07:29;;;;;;;7.85;3.72;;;;;;;;;;4998793;28;20113;-73
2023/07/29 05:09:55;;;;;;;9.43;4.35;;;;;;;;;;4996833;28;20465;-73
2023/07/29 05:12:21;;;;;;;10.65;4.15;;;;;;;;;;4988224;28;20125;-73
2023/07/29 05:14:47;;;;;;;13.05;4.43;;;;;;;;;;4974020;28;20082;-73
2023/07/29 05:17:14;;;;;;;8.98;4.22;;;;;;;;;;4979645;28;20046;-73
2023/07/29 05:19:40;;;;;;;10.00;4.18;;;;;;;;;;4992288;28;20042;-73
2023/07/29 05:22:06;;;;;;;11.57;4.38;;;;;;;;;;4990136;28;20038;-73
2023/07/29 05:24:32;;;;;;;8.95;4.20;;;;;;;;;;5005965;28;20042;-73
2023/07/29 05:26:58;;;;;;;17.00;4.88;;;;;;;;;;4989433;28;20472;-73
2023/07/29 05:29:24;;;;;;;10.55;4.00;;;;;;;;;;5008500;28;20054;-73
2023/07/29 05:31:50;;;;;;;10.63;4.40;;;;;;;;;;5001503;28;20107;-73
2023/07/29 05:34:16;;;;;;;11.00;4.57;;;;;;;;;;5009213;28;20528;-73
2023/07/29 05:36:42;;;;;;;15.50;4.50;;;;;;;;;;5009199;28;20521;-73
2023/07/29 05:39:08;;;;;;;9.35;3.97;;;;;;;;;;5003825;28;20060;-73
2023/07/29 05:41:34;;;;;;;10.60;4.35;;;;;;;;;;5008632;28;20099;-73
2023/07/29 05:44:00;;;;;;;10.45;4.15;;;;;;;;;;5010760;28;20081;-73
2023/07/29 05:46:26;;;;;;;15.38;4.22;;;;;;;;;;5010333;28;20085;-73
2023/07/29 05:48:52;;;;;;;11.75;4.30;;;;;;;;;;5007207;28;20507;-73
2023/07/29 05:51:19;;;;;;;17.48;4.40;;;;;;;;;;5008999;28;20038;-73
2023/07/29 05:53:45;;;;;;;11.18;4.65;;;;;;;;;;4998044;28;20394;-73
2023/07/29 05:56:11;;;;;;;11.77;4.50;;;;;;;;;;5010872;28;20054;-73
2023/07/29 05:58:40;;;;;;;11.60;4.50;;;;;;;;;;5009250;28;20077;-73
2023/07/29 06:01:06;;;;;;;12.82;4.22;;;;;;;;;;5010193;28;20513;-73
2023/07/29 06:03:32;;;;;;;10.27;4.45;;;;;;;;;;5008966;28;20427;-73
2023/07/29 06:05:58;;;;;;;12.80;4.68;;;;;;;;;;5009175;28;20099;-73
2023/07/29 06:08:24;;;;;;;14.15;4.13;;;;;;;;;;5011343;28;20049;-73
2023/07/29 06:10:50;;;;;;;15.90;4.75;;;;;;;;;;5013808;28;20050;-73
2023/07/29 06:13:16;;;;;;;14.05;4.30;;;;;;;;;;5012891;28;20045;-73
2023/07/29 06:15:42;;;;;;;12.68;4.40;;;;;;;;;;5014229;28;20068;-73
2023/07/29 06:18:08;;;;;;;11.93;4.18;;;;;;;;;;5013841;28;20494;-73
2023/07/29 06:20:34;;;;;;;11.48;4.05;;;;;;;;;;5010657;28;20505;-73
2023/07/29 06:23:00;;;;;;;14.20;3.90;;;;;;;;;;5013028;28;20057;-73
2023/07/29 06:25:26;;;;;;;9.07;3.40;;;;;;;;;;5014028;28;20037;-73
2023/07/29 06:27:52;;;;;;;7.97;3.45;;;;;;;;;;5008639;28;20050;-73
2023/07/29 06:30:18;;;;;;;12.05;4.03;;;;;;;;;;5013123;28;20483;-73
2023/07/29 06:32:44;;;;;;;10.07;3.20;;;;;;;;;;5011771;28;20073;-73
2023/07/29 06:35:10;;;;;;;12.23;3.92;;;;;;;;;;5012535;28;20037;-73
2023/07/29 06:37:36;;;;;;;9.70;3.40;;;;;;;;;;5010594;28;20053;-73
2023/07/29 06:40:03;;;;;;;9.30;3.10;;;;;;;;;;5011136;28;20049;-73
2023/07/29 06:42:29;;;;;;;10.95;3.78;;;;;;;;;;5013024;28;20061;-73
2023/07/29 06:44:55;;;;;;;4.75;2.70;;;;;;;;;;5011783;28;20436;-73
2023/07/29 06:47:21;;;;;;;9.88;3.90;;;;;;;;;;5012831;28;20486;-74
2023/07/29 06:49:47;;;;;;;9.65;3.38;;;;;;;;;;5014123;28;20046;-73
2023/07/29 06:52:13;;;;;;;8.52;3.40;;;;;;;;;;5014190;28;20046;-73
2023/07/29 06:54:39;;;;;;;8.45;3.70;;;;;;;;;;5014400;28;20045;-73
2023/07/29 06:57:06;;;;;;;8.20;3.63;;;;;;;;;;4999611;28;20046;-73
2023/07/29 06:59:32;;;;;;;5.75;3.47;;;;;;;;;;5013325;28;20478;-73
2023/07/29 07:01:59;;;;;;;9.05;3.42;;;;;;;;;;5011601;28;20494;-73
2023/07/29 07:04:25;;;;;;;8.30;3.15;;;;;;;;;;5012504;28;20049;-73
2023/07/29 07:06:51;;;;;;;6.57;3.08;;;;;;;;;;5011188;28;20069;-73
2023/07/29 07:09:17;;;;;;;9.73;3.35;;;;;;;;;;5012441;28;20053;-73
2023/07/29 07:11:43;;;;;;;6.55;3.10;;;;;;;;;;5013626;28;20050;-73
2023/07/29 07:14:09;;;;;;;5.57;3.20;;;;;;;;;;5010176;28;20045;-74
2023/07/29 07:16:36;;;;;;;5.43;2.83;;;;;;;;;;5011113;28;20516;-73
2023/07/29 07:19:03;;;;;;;6.18;3.40;;;;;;;;;;5012459;28;20046;-74
2023/07/29 07:21:29;;;;;;;6.85;3.10;;;;;;;;;;5012605;28;20050;-73
2023/07/29 07:23:55;;;;;;;7.45;3.00;;;;;;;;;;5008292;28;20177;-73
2023/07/29 07:26:21;;;;;;;10.48;3.15;;;;;;;;;;5007110;28;20050;-74
2023/07/29 07:28:47;;;;;;;8.20;3.28;;;;;;;;;;4985366;28;20121;-74
2023/07/29 07:31:13;;;;;;;6.55;3.22;;;;;;;;;;4996974;28;20062;-73
2023/07/29 07:33:42;;;;;;;6.15;3.20;;;;;;;;;;4989065;28;20133;-74
2023/07/29 07:36:08;;;;;;;7.30;3.03;;;;;;;;;;4989072;28;20050;-74
2023/07/29 07:38:34;;;;;;;9.85;3.40;;;;;;;;;;4974198;28;20054;-73
2023/07/29 07:41:00;;;;;;;7.80;2.97;;;;;;;;;;5003699;28;20133;-74
2023/07/29 07:43:26;;;;;;;7.47;3.10;;;;;;;;;;5001778;28;20438;-74
2023/07/29 07:45:58;;;;;;;5.15;2.90;;;;;;;;;;4974718;28;20074;-74
2023/07/29 07:48:24;;;;;;;6.68;3.20;;;;;;;;;;5003495;28;20112;-73
2023/07/29 07:50:50;;;;;;;6.43;2.90;;;;;;;;;;5004336;28;20475;-74
2023/07/29 07:53:16;;;;;;;9.10;3.33;;;;;;;;;;4975840;28;20046;-74
2023/07/29 07:55:42;;;;;;;8.52;3.25;;;;;;;;;;4998137;28;20048;-74
2023/07/29 07:58:08;;;;;;;7.28;3.10;;;;;;;;;;4980435;28;20132;-74
2023/07/29 08:00:34;;;;;;;6.10;3.05;;;;;;;;;;4976856;28;20490;-74
2023/07/29 08:03:00;;;;;;;6.30;2.92;;;;;;;;;;5001187;28;20058;-73
2023/07/29 08:05:26;;;;;;;6.25;2.95;;;;;;;;;;5012608;28;20041;-74
2023/07/29 08:07:52;;;;;;;10.98;5.25;;;;;;;;;;4996071;28;20324;-74
2023/07/29 08:10:18;;;;;;;6.40;3.60;;;;;;;;;;4970608;28;20497;-74
2023/07/29 08:12:44;;;;;;;10.55;3.97;;;;;;;;;;4994003;28;20069;-74
2023/07/29 08:15:10;;;;;;;8.90;3.63;;;;;;;;;;4993328;28;20046;-74
2023/07/29 08:17:36;;;;;;;7.57;3.00;;;;;;;;;;5000213;28;20042;-74
2023/07/29 08:20:02;;;;;;;6.43;2.90;;;;;;;;;;4991003;28;20437;-73
2023/07/29 08:22:28;;;;;;;7.03;3.22;;;;;;;;;;4989423;28;20486;-74
2023/07/29 08:24:54;;;;;;;6.45;2.83;;;;;;;;;;5005421;28;20537;-74
2023/07/29 08:27:20;;;;;;;4.57;2.90;;;;;;;;;;4993877;28;20154;-73
2023/07/29 08:29:47;;;;;;;5.13;2.97;;;;;;;;;;5010340;28;20132;-73
2023/07/29 08:32:13;;;;;;;8.10;3.17;;;;;;;;;;5010379;28;20054;-74
2023/07/29 08:34:39;;;;;;;7.95;2.92;;;;;;;;;;5011197;28;20057;-74
2023/07/29 08:37:05;;;;;;;8.25;2.75;;;;;;;;;;5008102;28;20099;-74
2023/07/29 08:39:31;;;;;;;10.35;3.65;;;;;;;;;;5012821;28;20052;-74
2023/07/29 08:42:00;;;;;;;7.55;3.40;;;;;;;;;;5011643;28;20042;-74
2023/07/29 08:44:31;;;;;;;19.58;9.18;;;;;;;;;;5011818;28;20125;-74
2023/07/29 08:46:57;;;;;;;8.02;3.50;;;;;;;;;;5010462;28;20056;-74
2023/07/29 08:49:23;;;;;;;8.68;3.20;;;;;;;;;;5011302;28;20042;-74
2023/07/29 08:51:50;;;;;;;6.40;3.63;;;;;;;;;;5010870;28;20053;-74
2023/07/29 08:54:17;;;;;;;6.03;2.97;;;;;;;;;;5005920;28;20647;-73
2023/07/29 08:56:43;;;;;;;7.45;3.20;;;;;;;;;;5009848;28;20129;-73
2023/07/29 08:59:10;;;;;;;6.55;3.13;;;;;;;;;;5009860;28;20050;-74
2023/07/29 09:01:37;;;;;;;7.40;3.05;;;;;;;;;;5008426;28;20103;-74
2023/07/29 09:04:03;;;;;;;9.35;3.70;;;;;;;;;;5011002;28;20046;-74
2023/07/29 09:06:29;;;;;;;11.82;3.50;;;;;;;;;;5008873;28;20041;-74
2023/07/29 09:08:58;;;;;;;8.73;3.50;;;;;;;;;;5009389;28;20062;-74
2023/07/29 09:11:25;;;;;;;8.30;3.50;;;;;;;;;;5011844;28;20088;-74
2023/07/29 09:13:51;;;;;;;8.65;4.68;;;;;;;;;;5008157;28;20065;-74
2023/07/29 09:16:17;;;;;;;8.35;3.40;;;;;;;;;;5010440;28;20474;-74
2023/07/29 09:18:43;;;;;;;12.00;3.53;;;;;;;;;;5009170;28;20049;-73
2023/07/29 09:21:09;;;;;;;7.18;3.05;;;;;;;;;;5007131;28;20045;-74
2023/07/29 09:23:42;;;;;;;8.10;3.03;;;;;;;;;;5002042;28;20045;-74
2023/07/29 09:26:08;;;;;;;6.28;3.00;;;;;;;;;;5008601;28;20579;-74
2023/07/29 09:28:35;;;;;;;6.72;2.83;;;;;;;;;;4992805;28;20062;-74
2023/07/29 09:31:01;;;;;;;6.70;2.75;;;;;;;;;;4986847;28;20049;-74
2023/07/29 09:33:28;;;;;;;6.90;3.20;;;;;;;;;;4973663;28;20839;-74
2023/07/29 09:35:54;;;;;;;5.93;3.10;;;;;;;;;;4977928;28;20050;-74
2023/07/29 09:38:26;;;;;;;4.93;3.00;;;;;;;;;;4988608;28;20068;-74
2023/07/29 09:40:55;;;;;;;4.25;2.60;;;;;;;;;;4988195;28;20053;-73
2023/07/29 09:43:25;;;;;;;8.02;3.13;;;;;;;;;;4970997;28;20058;-73
2023/07/29 09:45:52;;;;;;;6.78;2.92;;;;;;;;;;4970485;28;20486;-74
2023/07/29 09:48:22;;;;;;;5.20;3.00;;;;;;;;;;4990671;28;20082;-73
2023/07/29 09:50:49;;;;;;;8.45;2.70;;;;;;;;;;4971818;28;20069;-73
2023/07/29 09:53:15;;;;;;;7.68;2.90;;;;;;;;;;4974115;28;20053;-73
2023/07/29 09:55:46;;;;;;;6.47;2.80;;;;;;;;;;4980263;28;20046;-73
2023/07/29 09:58:15;;;;;;;6.75;3.08;;;;;;;;;;4988479;28;20129;-73
2023/07/29 10:00:41;;;;;;;6.07;3.08;;;;;;;;;;4982535;28;20043;-73
2023/07/29 10:03:07;;;;;;;5.97;2.80;;;;;;;;;;4987738;28;20046;-72
2023/07/29 10:05:36;;;;;;;6.30;2.90;;;;;;;;;;4971669;28;20050;-74
2023/07/29 10:08:03;;;;;;;6.95;3.10;;;;;;;;;;4987674;28;20053;-74
2023/07/29 10:10:29;;;;;;;11.48;3.78;;;;;;;;;;4968373;28;20082;-74
2023/07/29 10:12:57;;;;;;;9.65;3.40;;;;;;;;;;4979969;28;20410;-74
2023/07/29 10:15:23;;;;;;;7.57;3.20;;;;;;;;;;4967732;28;20155;-74
2023/07/29 10:17:50;;;;;;;6.45;3.20;;;;;;;;;;4971385;28;20494;-74
2023/07/29 10:20:16;;;;;;;7.30;3.38;;;;;;;;;;4955524;28;20513;-74
2023/07/29 10:22:44;;;;;;;9.80;2.85;;;;;;;;;;4973482;28;20054;-74
2023/07/29 10:25:16;;;;;;;7.30;2.67;;;;;;;;;;4958807;28;21309;-74
2023/07/29 10:27:50;;;;;;;7.80;2.40;;;;;;;;;;5006463;28;20497;-74
2023/07/29 10:30:16;;;;;;;2.70;1.80;;;;;;;;;;5009172;28;20049;-74
2023/07/29 10:32:47;;;;;;;2.03;1.92;;;;;;;;;;4998586;28;20545;-74
2023/07/29 10:35:14;;;;;;;4.25;2.10;;;;;;;;;;4988235;28;20129;-74
2023/07/29 10:37:41;;;;;;;3.50;2.17;;;;;;;;;;5008879;28;20045;-73
2023/07/29 10:40:08;;;;;;;3.70;2.15;;;;;;;;;;5017273;28;20049;-74
2023/07/29 10:42:35;;;;;;;6.15;2.78;;;;;;;;;;5025923;28;20049;-74
2023/07/29 10:45:01;;;;;;;6.45;2.70;;;;;;;;;;4995197;28;20129;-74
2023/07/29 10:47:30;;;;;;;5.28;2.40;;;;;;;;;;5009370;28;20050;-74
2023/07/29 10:50:00;;;;;;;5.85;2.75;;;;;;;;;;5010936;28;20054;-74
2023/07/29 10:52:35;;;;;;;7.18;2.50;;;;;;;;;;5010226;28;20042;-74
2023/07/29 10:55:01;;;;;;;7.13;2.90;;;;;;;;;;4986149;28;20490;-74
2023/07/29 10:57:33;;;;;;;9.77;2.50;;;;;;;;;;5005309;28;20580;-74
2023/07/29 10:59:59;;;;;;;8.75;2.53;;;;;;;;;;4997188;28;20397;-74
2023/07/29 11:02:33;;;;;;;9.32;2.67;;;;;;;;;;5013669;28;20045;-74
2023/07/29 11:05:00;;;;;;;5.43;2.30;;;;;;;;;;5022843;28;20454;-74
2023/07/29 11:07:27;;;;;;;7.68;2.80;;;;;;;;;;5015662;28;20045;-73
2023/07/29 11:09:57;;;;;;;5.90;3.30;;;;;;;;;;5020508;28;20046;-74
2023/07/29 11:12:36;;;;;;;7.38;2.80;;;;;;;;;;4996544;28;20489;-74
2023/07/29 11:15:12;;;;;;;4.40;2.58;;;;;;;;;;4996480;28;20141;-74
2023/07/29 11:17:43;;;;;;;5.93;2.45;;;;;;;;;;4996904;28;20060;-73
2023/07/29 11:20:12;;;;;;;5.45;2.92;;;;;;;;;;5012656;28;20046;-74
2023/07/29 11:22:39;;;;;;;4.93;2.65;;;;;;;;;;5012887;28;20048;-74
2023/07/29 11:25:05;;;;;;;4.70;2.60;;;;;;;;;;5017533;28;20095;-74
2023/07/29 11:27:31;;;;;;;4.20;2.65;;;;;;;;;;5007622;28;20058;-74
2023/07/29 11:30:01;;;;;;;7.80;2.70;;;;;;;;;;5012666;28;20050;-73
2023/07/29 11:32:27;;;;;;;6.65;2.80;;;;;;;;;;5012221;28;20136;-74
2023/07/29 11:34:54;;;;;;;5.97;2.55;;;;;;;;;;5012654;28;20034;-73
2023/07/29 11:37:23;;;;;;;4.22;2.65;;;;;;;;;;5013512;28;20128;-74
2023/07/29 11:39:51;;;;;;;6.88;2.90;;;;;;;;;;5012474;28;20062;-74
2023/07/29 11:42:17;;;;;;;7.13;3.05;;;;;;;;;;5012665;28;20077;-74
2023/07/29 11:44:44;;;;;;;6.72;2.88;;;;;;;;;;5009486;28;20048;-74
2023/07/29 11:47:10;;;;;;;7.45;2.92;;;;;;;;;;5011293;28;20129;-74
2023/07/29 11:49:37;;;;;;;8.40;3.00;;;;;;;;;;5011620;28;20053;-74
2023/07/29 11:52:03;;;;;;;5.85;3.13;;;;;;;;;;5013523;28;20037;-73
2023/07/29 11:54:30;;;;;;;5.22;2.65;;;;;;;;;;4997243;28;20038;-73
2023/07/29 11:56:56;;;;;;;5.53;2.63;;;;;;;;;;5012087;28;20042;-73
2023/07/29 11:59:22;;;;;;;7.40;3.00;;;;;;;;;;5007562;28;20046;-73
2023/07/29 12:01:48;;;;;;;6.05;2.60;;;;;;;;;;5012138;28;20494;-73
2023/07/29 12:04:17;;;;;;;9.82;3.10;;;;;;;;;;5008797;28;20042;-73
2023/07/29 12:06:43;;;;;;;4.82;2.92;;;;;;;;;;5011792;28;20042;-73
2023/07/29 12:09:09;;;;;;;6.78;2.80;;;;;;;;;;5011461;28;20041;-73
2023/07/29 12:11:36;;;;;;;7.07;3.38;;;;;;;;;;5011972;28;20042;-73
2023/07/29 12:14:02;;;;;;;8.15;3.65;;;;;;;;;;5008116;28;20046;-73
2023/07/29 12:16:34;;;;;;;7.10;3.00;;;;;;;;;;5011170;28;20046;-73
2023/07/29 12:19:01;;;;;;;7.15;3.47;;;;;;;;;;5009965;28;20091;-73
2023/07/29 12:21:27;;;;;;;10.30;3.25;;;;;;;;;;5013033;28;20057;-73
2023/07/29 12:23:53;;;;;;;7.85;3.33;;;;;;;;;;5004672;28;20121;-73
2023/07/29 12:26:19;;;;;;;9.57;3.45;;;;;;;;;;5011262;28;20066;-73
2023/07/29 12:28:48;;;;;;;11.02;3.35;;;;;;;;;;5009539;28;20050;-76
2023/07/29 12:31:14;;;;;;;5.80;2.95;;;;;;;;;;5007177;28;20128;-75
2023/07/29 12:33:42;;;;;;;6.43;2.90;;;;;;;;;;5009431;28;20629;-74
2023/07/29 12:36:08;;;;;;;8.38;3.38;;;;;;;;;;5008424;28;20577;-75
2023/07/29 12:38:34;;;;;;;5.07;3.03;;;;;;;;;;5009547;28;20046;-75
2023/07/29 12:41:01;;;;;;;7.85;3.05;;;;;;;;;;5003695;28;20077;-75
2023/07/29 12:43:27;;;;;;;7.35;3.08;;;;;;;;;;5009216;28;20057;-75
2023/07/29 12:45:53;;;;;;;9.23;3.80;;;;;;;;;;5011780;28;20064;-75
2023/07/29 12:48:19;;;;;;;6.72;3.33;;;;;;;;;;5012101;28;20045;-75
2023/07/29 12:50:46;;;;;;;5.88;2.70;;;;;;;;;;5010245;28;20046;-73
2023/07/29 12:53:12;;;;;;;10.00;3.50;;;;;;;;;;5009214;28;20066;-73
2023/07/29 12:55:38;;;;;;;15.35;4.47;;;;;;;;;;5007183;28;20116;-73
2023/07/29 12:58:04;;;;;;;8.23;3.65;;;;;;;;;;5006634;28;20136;-78
2023/07/29 13:00:31;;;;;;;7.07;3.72;;;;;;;;;;5008263;28;20088;-73
2023/07/29 13:02:57;;;;;;;8.32;3.78;;;;;;;;;;5010079;28;20081;-73
2023/07/29 13:05:23;;;;;;;14.93;10.23;;;;;;;;;;5008906;28;20406;-73
2023/07/29 13:07:49;;;;;;;5.13;3.10;;;;;;;;;;5012236;28;20543;-73
2023/07/29 13:10:15;;;;;;;7.80;3.40;;;;;;;;;;5010870;28;20048;-72
2023/07/29 13:12:41;;;;;;;6.85;3.78;;;;;;;;;;5010078;28;20050;-73
2023/07/29 13:15:07;;;;;;;6.15;3.70;;;;;;;;;;5017611;28;20446;-73
2023/07/29 13:17:34;;;;;;;5.68;3.13;;;;;;;;;;5010942;28;20046;-72
2023/07/29 13:20:00;;;;;;;7.45;3.40;;;;;;;;;;5010800;28;20404;-73
2023/07/29 13:22:26;;;;;;;7.82;3.47;;;;;;;;;;5011888;28;20054;-72
2023/07/29 13:24:52;;;;;;;7.78;3.33;;;;;;;;;;5011357;28;20042;-72
2023/07/29 13:27:18;;;;;;;6.28;3.30;;;;;;;;;;5008643;28;20058;-72
2023/07/29 13:29:44;;;;;;;5.43;3.10;;;;;;;;;;5011228;28;20049;-73
2023/07/29 13:32:10;;;;;;;6.32;3.35;;;;;;;;;;5007582;28;20406;-73
2023/07/29 13:34:36;;;;;;;7.35;3.20;;;;;;;;;;5009293;28;20046;-72
2023/07/29 13:37:02;;;;;;;6.25;3.38;;;;;;;;;;4991550;28;20445;-72
2023/07/29 13:39:28;;;;;;;17.05;11.45;;;;;;;;;;5011080;28;20496;-72
2023/07/29 13:41:55;;;;;;;11.05;3.97;;;;;;;;;;5009461;28;20058;-73
2023/07/29 13:44:21;;;;;;;8.07;3.50;;;;;;;;;;5010460;28;20045;-72
2023/07/29 13:46:47;;;;;;;6.60;3.40;;;;;;;;;;5009963;28;20379;-72
2023/07/29 13:49:13;;;;;;;7.57;3.10;;;;;;;;;;5003747;28;20042;-73
2023/07/29 13:51:39;;;;;;;6.75;3.10;;;;;;;;;;5012307;28;20053;-73
2023/07/29 13:54:05;;;;;;;7.18;3.28;;;;;;;;;;5011137;28;20553;-73
2023/07/29 13:56:31;;;;;;;5.75;3.25;;;;;;;;;;5009568;28;20172;-72
2023/07/29 13:58:57;;;;;;;6.45;2.92;;;;;;;;;;5011830;28;20038;-73
2023/07/29 14:01:23;;;;;;;6.18;3.20;;;;;;;;;;5011655;28;20391;-73
2023/07/29 14:03:49;;;;;;;7.75;3.10;;;;;;;;;;5011013;28;20044;-72
2023/07/29 14:06:15;;;;;;;5.80;3.15;;;;;;;;;;5007223;28;20042;-73
2023/07/29 14:08:41;;;;;;;6.40;3.10;;;;;;;;;;5010114;28;20054;-73
2023/07/29 14:11:08;;;;;;;7.65;3.25;;;;;;;;;;5009299;28;20053;-73
2023/07/29 14:13:34;;;;;;;6.82;3.25;;;;;;;;;;5009924;28;20054;-73
2023/07/29 14:16:04;;;;;;;7.50;3.65;;;;;;;;;;5009563;28;20033;-73
2023/07/29 14:18:31;;;;;;;4.72;3.53;;;;;;;;;;5011594;28;20046;-73
2023/07/29 14:20:57;;;;;;;11.57;7.47;;;;;;;;;;5009944;28;20445;-73
2023/07/29 14:23:23;;;;;;;11.07;5.00;;;;;;;;;;5004296;28;20168;-73
2023/07/29 14:25:49;;;;;;;5.45;3.00;;;;;;;;;;5008198;28;20077;-73
2023/07/29 14:28:15;;;;;;;6.93;3.47;;;;;;;;;;5009025;28;20459;-73
2023/07/29 14:30:41;;;;;;;8.63;3.53;;;;;;;;;;5015864;28;20053;-73
2023/07/29 14:33:07;;;;;;;4.60;3.13;;;;;;;;;;5014308;28;20042;-73
2023/07/29 14:35:33;;;;;;;8.40;3.00;;;;;;;;;;4995274;28;20042;-73
2023/07/29 14:37:59;;;;;;;6.40;2.70;;;;;;;;;;5017502;28;20125;-73